createdAt,value
2023-03-22T00:00:29.041Z,100023.27
2023-03-22T00:02:33.624Z,100011.56
2023-03-22T00:04:38.178Z,100010.52
2023-03-22T00:06:42.595Z,100007.11
2023-03-22T00:08:46.994Z,100002.56
2023-03-22T00:10:51.389Z,99996
2023-03-22T00:12:55.756Z,100000.8
2023-03-22T00:15:00.155Z,99988
2023-03-22T00:17:04.620Z,99989.88
2023-03-22T00:19:09.013Z,99983.98
2023-03-22T00:21:13.456Z,99982.63
2023-03-22T00:23:17.815Z,99978.36
2023-03-22T00:25:22.201Z,99974.95
2023-03-22T00:27:26.551Z,99977.08
2023-03-22T00:29:30.922Z,99976.7
2023-03-22T00:31:35.438Z,99973.39
2023-03-22T00:33:39.847Z,99971.92
2023-03-22T00:35:44.384Z,99970.3
2023-03-22T00:37:48.890Z,99967.89
2023-03-22T00:39:53.201Z,99962.45
2023-03-22T00:41:57.584Z,99957.11
2023-03-22T00:44:01.961Z,99955.84
2023-03-22T00:46:06.538Z,99953.77
2023-03-22T00:48:11.118Z,99953.47
2023-03-22T00:50:15.785Z,99952.27
2023-03-22T00:52:20.283Z,99951.56
2023-03-22T00:54:24.610Z,99952.21
2023-03-22T00:56:29.186Z,99944.85
2023-03-22T00:58:33.716Z,99949.72
2023-03-22T01:00:38.626Z,99948.91
2023-03-22T01:02:43.730Z,99946.41
2023-03-22T01:04:48.316Z,99941.7
2023-03-22T01:06:52.704Z,99946.07
2023-03-22T01:08:57.030Z,99941.13
2023-03-22T01:11:01.488Z,99936.83
2023-03-22T01:13:05.929Z,99935.22
2023-03-22T01:15:10.228Z,99932.77
2023-03-22T01:17:14.577Z,99935.34
2023-03-22T01:19:18.912Z,99930.59
2023-03-22T01:21:23.508Z,99930.89
2023-03-22T01:23:27.893Z,99925.73
2023-03-22T01:25:32.194Z,99927.18
2023-03-22T01:27:36.553Z,99924.39
2023-03-22T01:29:40.895Z,99924.56
2023-03-22T01:31:45.240Z,99922.21
2023-03-22T01:33:49.627Z,99923.09
2023-03-22T01:35:54.238Z,99920.72
2023-03-22T01:37:58.824Z,99917.27
2023-03-22T01:40:03.316Z,99913.42
2023-03-22T01:42:07.660Z,99914.38
2023-03-22T01:44:12.090Z,99909.56
2023-03-22T01:46:16.655Z,99907.26
2023-03-22T01:48:21.209Z,99901.51
2023-03-22T01:50:25.653Z,99899.95
2023-03-22T01:52:29.975Z,99895.02
2023-03-22T01:54:34.373Z,99897.61
2023-03-22T01:56:38.716Z,99896.26
2023-03-22T01:58:43.112Z,99896.6
2023-03-22T02:00:47.434Z,99890.8
2023-03-22T02:02:51.869Z,99889.5
2023-03-22T02:04:56.260Z,99893.57
2023-03-22T02:07:00.572Z,99891.61
2023-03-22T02:09:04.942Z,99890.34
2023-03-22T02:11:09.301Z,99889.39
2023-03-22T02:13:13.619Z,99891.58
2023-03-22T02:15:18.019Z,99888.36
2023-03-22T02:17:22.345Z,99889.05
2023-03-22T02:19:26.720Z,99889.86
2023-03-22T02:21:31.030Z,99888.7
2023-03-22T02:23:35.323Z,99887.56
2023-03-22T02:25:39.697Z,99886.45
2023-03-22T02:27:44.034Z,99885.05
2023-03-22T02:29:48.337Z,99885.57
2023-03-22T02:31:52.690Z,99887.06
2023-03-22T02:33:57.007Z,99888.34
2023-03-22T02:36:01.376Z,99887.64
2023-03-22T02:38:05.722Z,99884.72
2023-03-22T02:40:10.085Z,99887.83
2023-03-22T02:42:14.403Z,99883.38
2023-03-22T02:44:18.767Z,99880.54
2023-03-22T02:46:23.302Z,99879.73
2023-03-22T02:48:27.820Z,99877.66
2023-03-22T02:50:32.193Z,99878.38
2023-03-22T02:52:36.557Z,99877.67
2023-03-22T02:54:42.799Z,99880
2023-03-22T02:56:48.805Z,99877.66
2023-03-22T02:58:53.312Z,99874.48
2023-03-22T03:00:57.777Z,99876.29
2023-03-22T03:03:02.360Z,99877.95
2023-03-22T03:05:06.810Z,99880.52
2023-03-22T03:07:11.182Z,99882.78
2023-03-22T03:09:15.495Z,99884.52
2023-03-22T03:11:19.830Z,99886.57
2023-03-22T03:13:24.150Z,99892.58
2023-03-22T03:15:28.481Z,99891.47
2023-03-22T03:17:32.826Z,99895.13
2023-03-22T03:19:37.155Z,99900.7
2023-03-22T03:22:02.537Z,99901.27
2023-03-22T03:24:06.881Z,99901.2
2023-03-22T03:26:11.225Z,99906.72
2023-03-22T03:28:15.562Z,99907.96
2023-03-22T03:30:19.982Z,99907.9
2023-03-22T03:32:24.322Z,99911.71
2023-03-22T03:34:28.714Z,99914.02
2023-03-22T03:36:32.990Z,99909.55
2023-03-22T03:38:37.332Z,99915.81
2023-03-22T03:40:42.249Z,99917.23
2023-03-22T03:42:46.568Z,99915.53
2023-03-22T03:44:50.931Z,99915.72
2023-03-22T03:46:55.421Z,99921.38
2023-03-22T03:48:59.844Z,99919.52
2023-03-22T03:51:04.170Z,99921.39
2023-03-22T03:53:08.493Z,99922.59
2023-03-22T03:55:12.808Z,99923.03
2023-03-22T03:57:17.160Z,99923.75
2023-03-22T03:59:21.508Z,99925.18
2023-03-22T04:01:25.841Z,99925.39
2023-03-22T04:03:30.192Z,99927.97
2023-03-22T04:05:34.522Z,99931.89
2023-03-22T04:07:38.864Z,99931.14
2023-03-22T04:09:43.188Z,99924.05
2023-03-22T04:11:47.505Z,99917.42
2023-03-22T04:13:51.829Z,99915.84
2023-03-22T04:15:56.160Z,99910.44
2023-03-22T04:18:00.450Z,99910.42
2023-03-22T04:20:06.969Z,99906.4
2023-03-22T04:22:11.309Z,99903.35
2023-03-22T04:24:15.644Z,99901.69
2023-03-22T04:26:20.104Z,99905.78
2023-03-22T04:28:24.460Z,99902.61
2023-03-22T04:30:28.770Z,99906.25
2023-03-22T04:32:33.093Z,99905.44
2023-03-22T04:34:37.404Z,99901.39
2023-03-22T04:36:41.748Z,99898.15
2023-03-22T04:38:46.184Z,99899.69
2023-03-22T04:40:50.561Z,99901.13
2023-03-22T04:42:54.900Z,99894.11
2023-03-22T04:44:59.204Z,99891.7
2023-03-22T04:47:03.536Z,99888.72
2023-03-22T04:49:07.838Z,99886.4
2023-03-22T04:51:12.171Z,99879.77
2023-03-22T04:53:16.602Z,99878.98
2023-03-22T04:55:20.940Z,99872.98
2023-03-22T04:57:25.260Z,99871.66
2023-03-22T04:59:29.587Z,99871.29
2023-03-22T05:01:34.076Z,99874.4
2023-03-22T05:03:38.504Z,99872.03
2023-03-22T05:05:42.817Z,99875.8
2023-03-22T05:07:47.138Z,99881.06
2023-03-22T05:09:51.459Z,99885.22
2023-03-22T05:11:55.781Z,99881.58
2023-03-22T05:14:00.109Z,99881.47
2023-03-22T05:16:04.633Z,99877.83
2023-03-22T05:18:09.207Z,99876.66
2023-03-22T05:20:13.588Z,99875.8
2023-03-22T05:22:17.953Z,99878.13
2023-03-22T05:24:22.267Z,99881.3
2023-03-22T05:26:26.654Z,99881.45
2023-03-22T05:28:31.030Z,99885.81
2023-03-22T05:30:35.461Z,99888.95
2023-03-22T05:32:39.880Z,99890.03
2023-03-22T05:34:44.208Z,99891.7
2023-03-22T05:36:48.518Z,99890.55
2023-03-22T05:38:52.882Z,99889.73
2023-03-22T05:40:57.215Z,99892.63
2023-03-22T05:43:01.558Z,99887.3
2023-03-22T05:58:33.611Z,99869.97
2023-03-22T06:00:38.324Z,99873.72
2023-03-22T06:02:43.507Z,99869.22
2023-03-22T06:04:47.981Z,99870.47
2023-03-22T06:06:52.293Z,99873.25
2023-03-22T06:09:16.717Z,99878.98
2023-03-22T06:11:21.622Z,99876.95
2023-03-22T06:13:26.090Z,99874.84
2023-03-22T06:15:30.505Z,99877.96
2023-03-22T06:17:34.879Z,99878.39
2023-03-22T06:19:39.234Z,99880.63
2023-03-22T06:21:43.590Z,99881.77
2023-03-22T06:23:47.906Z,99880.64
2023-03-22T06:25:52.267Z,99878.41
2023-03-22T06:27:56.626Z,99877.27
2023-03-22T06:30:01.007Z,99879.91
2023-03-22T06:32:05.514Z,99880.81
2023-03-22T06:34:09.884Z,99876.15
2023-03-22T06:36:14.241Z,99883.31
2023-03-22T06:38:18.583Z,99884.36
2023-03-22T06:40:23.102Z,99891.83
2023-03-22T06:42:27.423Z,99891.41
2023-03-22T06:44:31.850Z,99891.75
2023-03-22T06:46:36.327Z,99897.22
2023-03-22T06:48:40.623Z,99897.44
2023-03-22T06:50:46.111Z,99900.23
2023-03-22T06:52:50.583Z,99899.8
2023-03-22T06:54:54.902Z,99901.84
2023-03-22T06:56:59.251Z,99903.32
2023-03-22T06:59:03.603Z,99905
2023-03-22T07:01:08.139Z,99904.7
2023-03-22T07:03:12.551Z,99900.94
2023-03-22T07:05:16.906Z,99901.52
2023-03-22T07:07:21.305Z,99903.95
2023-03-22T07:09:25.643Z,99904.17
2023-03-22T07:11:30.019Z,99901.61
2023-03-22T07:13:34.346Z,99904.33
2023-03-22T07:15:38.762Z,99907.3
2023-03-22T07:17:43.223Z,99912.31
2023-03-22T07:19:47.681Z,99912.73
2023-03-22T07:21:52.018Z,99910.2
2023-03-22T07:23:56.473Z,99912.39
2023-03-22T07:26:00.802Z,99904.38
2023-03-22T07:28:05.216Z,99901.16
2023-03-22T07:30:10.945Z,99895.72
2023-03-22T07:32:15.467Z,99895.95
2023-03-22T07:34:20.260Z,99892.19
2023-03-22T07:36:24.820Z,99892.33
2023-03-22T07:38:29.153Z,99890.41
2023-03-22T07:40:33.482Z,99890.81
2023-03-22T07:42:38.166Z,99888
2023-03-22T07:44:44.941Z,99885.03
2023-03-22T07:46:49.581Z,99887.78
2023-03-22T07:48:53.973Z,99885.66
2023-03-22T07:50:58.256Z,99885.36
2023-03-22T07:53:02.615Z,99883.09
2023-03-22T07:55:07.151Z,99886.41
2023-03-22T07:57:11.541Z,99885.61
2023-03-22T07:59:15.992Z,99887.45
2023-03-22T08:01:20.664Z,99886.27
2023-03-22T08:03:25.222Z,99887.29
2023-03-22T08:05:29.705Z,99885.52
2023-03-22T08:07:34.107Z,99886.53
2023-03-22T08:09:38.547Z,99883.75
2023-03-22T08:11:42.878Z,99881.73
2023-03-22T08:13:47.259Z,99889.66
2023-03-22T08:15:51.599Z,99886.95
2023-03-22T08:17:56.003Z,99881.98
2023-03-22T08:20:00.394Z,99880.02
2023-03-22T08:22:04.870Z,99878.56
2023-03-22T08:24:09.258Z,99875.31
2023-03-22T08:26:13.627Z,99874.44
2023-03-22T08:28:18.088Z,99874.31
2023-03-22T08:30:22.496Z,99878.08
2023-03-22T08:32:27.001Z,99877.72
2023-03-22T08:34:31.520Z,99878.42
2023-03-22T08:36:35.939Z,99877.23
2023-03-22T08:38:40.276Z,99877.22
2023-03-22T08:40:44.724Z,99876.3
2023-03-22T08:42:49.202Z,99873.83
2023-03-22T08:44:53.593Z,99872.36
2023-03-22T08:46:57.997Z,99872.16
2023-03-22T08:49:02.578Z,99871.92
2023-03-22T08:51:06.919Z,99873.7
2023-03-22T08:53:11.291Z,99870.11
2023-03-22T08:55:15.663Z,99871.8
2023-03-22T08:57:20.057Z,99867.5
2023-03-22T08:59:24.422Z,99868.44
2023-03-22T09:01:29.005Z,99865.92
2023-03-22T09:03:33.693Z,99866.66
2023-03-22T09:05:38.850Z,99863.34
2023-03-22T09:07:43.726Z,99864.5
2023-03-22T09:09:48.080Z,99863.28
2023-03-22T09:11:52.554Z,99866.8
2023-03-22T09:13:56.874Z,99863.05
2023-03-22T09:16:01.405Z,99861.76
2023-03-22T09:18:05.816Z,99860.88
2023-03-22T09:20:14.014Z,99858.23
2023-03-22T09:22:18.499Z,99856.91
2023-03-22T09:24:22.844Z,99849.44
2023-03-22T09:26:27.295Z,99846.17
2023-03-22T09:28:31.956Z,99850.36
2023-03-22T09:30:36.502Z,99851.73
2023-03-22T09:32:40.943Z,99849.45
2023-03-22T09:34:45.292Z,99846.78
2023-03-22T09:36:49.660Z,99845.48
2023-03-22T09:38:53.976Z,99846.17
2023-03-22T09:40:58.343Z,99845.43
2023-03-22T09:43:02.806Z,99850.09
2023-03-22T09:45:07.239Z,99841.13
2023-03-22T09:47:11.623Z,99843.42
2023-03-22T09:49:15.987Z,99839.02
2023-03-22T09:51:20.322Z,99839.93
2023-03-22T09:53:24.653Z,99835.16
2023-03-22T09:55:28.988Z,99838.59
2023-03-22T09:57:33.357Z,99836.39
2023-03-22T09:59:37.713Z,99831.92
2023-03-22T10:01:42.606Z,99830.02
2023-03-22T10:03:47.484Z,99825.36
2023-03-22T10:05:51.880Z,99825.5
2023-03-22T10:07:56.250Z,99823.2
2023-03-22T10:10:00.634Z,99820.05
2023-03-22T10:12:05.055Z,99822.48
2023-03-22T10:14:09.443Z,99820.19
2023-03-22T10:16:13.991Z,99821.06
2023-03-22T10:18:18.565Z,99819.98
2023-03-22T10:20:22.929Z,99815.63
2023-03-22T10:22:27.310Z,99820.3
2023-03-22T10:24:31.831Z,99816.42
2023-03-22T10:26:36.231Z,99818.53
2023-03-22T10:28:40.659Z,99820.98
2023-03-22T10:30:45.022Z,99817.72
2023-03-22T10:32:58.812Z,99823.56
2023-03-22T10:35:03.190Z,99823.92
2023-03-22T10:37:07.741Z,99820.7
2023-03-22T10:39:13.021Z,99814.84
2023-03-22T10:41:18.267Z,99814.39
2023-03-22T10:43:22.717Z,99816.22
2023-03-22T10:45:27.145Z,99812
2023-03-22T10:47:31.667Z,99811.85
2023-03-22T10:49:36.004Z,99809.72
2023-03-22T10:51:40.388Z,99814.24
2023-03-22T10:53:44.753Z,99813.13
2023-03-22T10:55:49.157Z,99812.8
2023-03-22T10:57:53.647Z,99806.16
2023-03-22T10:59:58.037Z,99800.78
2023-03-22T11:02:02.831Z,99802.14
2023-03-22T11:04:07.470Z,99795.94
2023-03-22T11:06:11.983Z,99793.51
2023-03-22T11:08:16.361Z,99792.89
2023-03-22T11:10:20.823Z,99788.97
2023-03-22T11:12:25.391Z,99787.53
2023-03-22T11:14:29.733Z,99788.63
2023-03-22T11:16:34.234Z,99789.5
2023-03-22T11:18:38.712Z,99780.97
2023-03-22T11:20:44.147Z,99778.63
2023-03-22T11:22:48.757Z,99775.21
2023-03-22T11:24:53.305Z,99775.02
2023-03-22T11:26:57.684Z,99770.4
2023-03-22T11:29:02.006Z,99767.07
2023-03-22T11:31:06.367Z,99760.78
2023-03-22T11:33:10.880Z,99754.34
2023-03-22T11:35:15.269Z,99752.67
2023-03-22T11:37:19.618Z,99752.16
2023-03-22T11:39:24.114Z,99749.41
2023-03-22T11:41:28.547Z,99748.02
2023-03-22T11:43:32.893Z,99744.08
2023-03-22T11:45:37.334Z,99737.02
2023-03-22T11:47:42.084Z,99734.38
2023-03-22T11:49:46.714Z,99735.21
2023-03-22T11:51:51.111Z,99730.6
2023-03-22T11:53:55.491Z,99729.59
2023-03-22T11:55:59.985Z,99721.45
2023-03-22T11:58:04.397Z,99716.85
2023-03-22T12:00:08.715Z,99719.34
2023-03-22T12:02:13.230Z,99717.47
2023-03-22T12:04:17.810Z,99714.55
2023-03-22T12:06:22.517Z,99709.22
2023-03-22T12:08:27.009Z,99710.43
2023-03-22T12:10:31.342Z,99703.3
2023-03-22T12:12:35.752Z,99708
2023-03-22T12:14:40.096Z,99708.02
2023-03-22T12:16:44.574Z,99711.09
2023-03-22T12:18:49.123Z,99707.46
2023-03-22T12:20:53.473Z,99707.25
2023-03-22T12:22:57.896Z,99701.64
2023-03-22T12:25:02.289Z,99699.85
2023-03-22T12:27:06.719Z,99698.04
2023-03-22T12:29:11.078Z,99698.23
2023-03-22T12:31:15.562Z,99694.16
2023-03-22T12:33:20.384Z,99695.06
2023-03-22T12:35:24.831Z,99693.44
2023-03-22T12:37:31.458Z,99686.55
2023-03-22T12:39:35.845Z,99685.52
2023-03-22T12:41:40.409Z,99686.42
2023-03-22T12:43:44.720Z,99681.91
2023-03-22T12:45:49.293Z,99683.61
2023-03-22T12:47:54.143Z,99677.34
2023-03-22T12:49:58.910Z,99669.77
2023-03-22T12:52:03.293Z,99671.13
2023-03-22T12:54:07.723Z,99671.97
2023-03-22T12:56:12.209Z,99676.38
2023-03-22T12:58:16.574Z,99670.39
2023-03-22T13:00:20.935Z,99665.52
2023-03-22T13:02:27.822Z,99661.73
2023-03-22T13:04:32.375Z,99661.58
2023-03-22T13:06:36.757Z,99659.57
2023-03-22T13:08:41.177Z,99664.23
2023-03-22T13:10:45.584Z,99663.03
2023-03-22T13:12:49.933Z,99660
2023-03-22T13:14:54.281Z,99654.95
2023-03-22T13:16:58.830Z,99661.97
2023-03-22T13:19:03.371Z,99657.34
2023-03-22T13:21:07.737Z,99657.87
2023-03-22T13:23:12.109Z,99659.74
2023-03-22T13:25:16.521Z,99656.2
2023-03-22T13:27:21.085Z,99653.43
2023-03-22T13:29:25.751Z,99652.89
2023-03-22T13:31:30.221Z,99650.27
2023-03-22T13:33:34.685Z,99647.09
2023-03-22T13:35:39.643Z,99645.67
2023-03-22T13:37:44.686Z,99646.37
2023-03-22T13:39:49.060Z,99642.92
2023-03-22T13:41:53.484Z,99639.25
2023-03-22T13:43:57.929Z,99640.14
2023-03-22T13:46:02.578Z,99634.58
2023-03-22T13:48:07.681Z,99632.23
2023-03-22T13:50:12.331Z,99632.37
2023-03-22T13:52:16.963Z,99626.38
2023-03-22T13:54:21.327Z,99624.87
2023-03-22T13:56:25.777Z,99627.11
2023-03-22T13:58:30.213Z,99627.45
2023-03-22T14:00:34.641Z,99623.95
2023-03-22T14:02:39.388Z,99619.11
2023-03-22T14:04:43.962Z,99622.41
2023-03-22T14:06:48.294Z,99618.02
2023-03-22T14:08:52.635Z,99615.73
2023-03-22T14:10:56.951Z,99616.25
2023-03-22T14:13:01.273Z,99615.02
2023-03-22T14:15:05.722Z,99614.41
2023-03-22T14:17:10.115Z,99614.22
2023-03-22T14:19:14.477Z,99614.73
2023-03-22T14:21:18.838Z,99609.09
2023-03-22T14:47:43.166Z,99597.6
2023-03-22T14:49:48.433Z,99603.85
2023-03-22T14:53:55.127Z,99596.5
2023-03-22T14:56:00.494Z,99593.63
2023-03-22T14:58:05.986Z,99590.36
2023-03-22T15:00:11.191Z,99594.86
2023-03-22T15:02:16.733Z,99592.19
2023-03-22T15:04:21.772Z,99585.09
2023-03-22T15:06:26.938Z,99580.66
2023-03-22T15:08:32.002Z,99579.64
2023-03-22T15:10:37.252Z,99579.61
2023-03-22T15:12:42.299Z,99575.88
2023-03-22T15:14:47.387Z,99574.75
2023-03-22T15:16:52.416Z,99569.66
2023-03-22T15:18:57.495Z,99566.53
2023-03-22T15:21:02.516Z,99566.04
2023-03-22T15:23:07.874Z,99566.55
2023-03-22T15:25:12.914Z,99566.95
2023-03-22T15:27:18.145Z,99568.7
2023-03-22T15:29:23.207Z,99570.87
2023-03-22T15:31:28.333Z,99562.31
2023-03-22T15:33:33.394Z,99558.81
2023-03-22T15:35:40.967Z,99553.25
2023-03-22T15:37:46.322Z,99560.56
2023-03-22T15:39:51.340Z,99551.38
2023-03-22T15:41:56.327Z,99549.69
2023-03-22T15:44:01.380Z,99548.61
2023-03-22T15:46:06.513Z,99544.02
2023-03-22T15:48:11.564Z,99546.67
2023-03-22T15:50:16.574Z,99547.55
2023-03-22T15:52:21.548Z,99546.34
2023-03-22T15:54:26.634Z,99545.73
2023-03-22T15:56:40.258Z,99540.97
2023-03-22T15:58:45.543Z,99541.95
2023-03-22T16:00:50.721Z,99540.35
2023-03-22T16:02:55.781Z,99537.02
2023-03-22T16:05:00.755Z,99535.13
2023-03-22T16:07:05.881Z,99531.47
2023-03-22T16:09:10.944Z,99529.08
2023-03-22T16:11:15.950Z,99527.13
2023-03-22T16:13:20.996Z,99532.17
2023-03-22T16:15:25.995Z,99528.93
2023-03-22T16:17:31.005Z,99526.03
2023-03-22T16:19:36.097Z,99524.59
2023-03-22T16:21:41.162Z,99524
2023-03-22T16:23:46.150Z,99522.63
2023-03-22T16:25:51.126Z,99520.85
2023-03-22T16:27:56.311Z,99521.3
2023-03-22T16:30:01.377Z,99525.63
2023-03-22T16:32:06.392Z,99530.39
2023-03-22T16:34:11.392Z,99530.16
2023-03-22T16:36:16.457Z,99534.02
2023-03-22T16:38:21.550Z,99534.48
2023-03-22T16:40:26.586Z,99536.38
2023-03-22T16:42:33.073Z,99528.65
2023-03-22T16:44:47.401Z,99534.03
2023-03-22T16:47:00.095Z,99530.48
2023-03-22T16:49:05.402Z,99533.06
2023-03-22T16:51:10.497Z,99531.13
2023-03-22T16:53:15.525Z,99534.41
2023-03-22T16:55:20.613Z,99539.88
2023-03-22T16:57:25.609Z,99540.94
2023-03-22T16:59:31.072Z,99540.9
2023-03-22T17:01:36.255Z,99543.53
2023-03-22T17:03:41.605Z,99543.23
2023-03-22T17:05:46.857Z,99541.24
2023-03-22T17:07:51.970Z,99539.66
2023-03-22T17:09:57.093Z,99534.84
2023-03-22T17:12:02.222Z,99537.67
2023-03-22T17:14:07.364Z,99534.09
2023-03-22T17:16:12.536Z,99530.8
2023-03-22T17:18:17.587Z,99541.36
2023-03-22T17:20:22.680Z,99535.88
2023-03-22T17:22:29.209Z,99537.91
2023-03-22T17:24:34.314Z,99537.73
2023-03-22T17:26:39.469Z,99541.57
2023-03-22T17:28:44.608Z,99535.99
2023-03-22T17:30:50.106Z,99533.44
2023-03-22T17:32:59.917Z,99531.89
2023-03-22T17:35:08.941Z,99534.91
2023-03-22T17:37:14.102Z,99532.28
2023-03-22T17:42:36.467Z,99531.98
2023-03-22T17:44:42.467Z,99525.17
2023-03-22T17:47:40.181Z,99526.78
2023-03-22T17:49:48.726Z,99525.64
2023-03-22T17:51:53.987Z,99526.06
2023-03-22T17:54:43.724Z,99527.47
2023-03-22T17:58:15.153Z,99530.05
2023-03-22T18:00:34.994Z,99536.75
2023-03-22T18:02:40.523Z,99537.84
2023-03-22T18:04:45.772Z,99533.06
2023-03-22T18:06:50.804Z,99535.33
2023-03-22T18:08:55.898Z,99535.52
2023-03-22T18:11:01.089Z,99536.23
2023-03-22T18:13:06.628Z,99532.25
2023-03-22T18:15:11.748Z,99527
2023-03-22T18:17:17.051Z,99531.03
2023-03-22T18:19:22.544Z,99529.41
2023-03-22T18:21:27.589Z,99524.34
2023-03-22T18:23:32.608Z,99526.48
2023-03-22T18:25:43.415Z,99523.52
2023-03-22T18:27:49.190Z,99518.34
2023-03-22T18:29:54.158Z,99524.59
2023-03-22T18:32:18.359Z,99525.41
2023-03-22T18:34:25.836Z,99522.38
2023-03-22T18:36:31.028Z,99524.53
2023-03-22T18:39:56.787Z,99525.34
2023-03-22T18:42:58.283Z,99522.27
2023-03-22T18:45:03.360Z,99523.64
2023-03-22T18:47:08.619Z,99522.92
2023-03-22T18:49:14.059Z,99522.38
2023-03-22T18:51:19.198Z,99517.19
2023-03-22T18:53:25.750Z,99515.87
2023-03-22T18:55:38.739Z,99529.45
2023-03-22T18:57:53.045Z,99521.52
2023-03-22T18:59:58.058Z,99520.69
2023-03-22T19:02:18.205Z,99526.82
2023-03-22T19:04:42.848Z,99526
2023-03-22T19:06:48.053Z,99526.51
2023-03-22T19:08:53.135Z,99533.63
2023-03-22T19:10:58.233Z,99532.06
2023-03-22T19:13:04.154Z,99530.98
2023-03-22T19:15:46.996Z,99532.65
2023-03-22T19:17:55.018Z,99533.89
2023-03-22T19:20:00.591Z,99529.99
2023-03-22T19:22:05.720Z,99528.2
2023-03-22T19:24:10.878Z,99531.69
2023-03-22T19:26:16.070Z,99530.08
2023-03-22T19:28:21.198Z,99536.42
2023-03-22T19:30:31.045Z,99533.44
2023-03-22T19:32:36.224Z,99534.79
2023-03-22T19:34:41.266Z,99532.45
2023-03-22T19:36:46.401Z,99533.84
2023-03-22T19:38:51.466Z,99536.91
2023-03-22T19:43:51.603Z,99536.29
2023-03-22T19:45:56.788Z,99537.09
2023-03-22T19:48:05.719Z,99536.77
2023-03-22T19:50:10.785Z,99538.04
2023-03-22T19:52:16.771Z,99540.57
2023-03-22T19:54:33.125Z,99537.5
2023-03-22T19:56:49.472Z,99538.83
2023-03-22T19:58:54.978Z,99537.58
2023-03-22T20:01:02.831Z,99542.87
2023-03-22T20:03:08.417Z,99539.69
2023-03-22T20:05:19.216Z,99537.34
2023-03-22T20:07:24.343Z,99540.23
2023-03-22T20:09:29.369Z,99537.56
2023-03-22T20:11:44.672Z,99537.19
2023-03-22T20:13:49.698Z,99536.34
2023-03-22T20:15:55.008Z,99536.8
2023-03-22T20:18:00.230Z,99542.31
2023-03-22T20:20:06.002Z,99538.79
2023-03-22T20:22:11.239Z,99537.84
2023-03-22T20:24:16.296Z,99544.02
2023-03-22T20:26:21.288Z,99539.48
2023-03-22T20:28:26.451Z,99537.63
2023-03-22T20:30:31.506Z,99537.41
2023-03-22T20:32:36.626Z,99536.92
2023-03-22T20:34:41.970Z,99533.88
2023-03-22T20:36:46.992Z,99534.91
2023-03-22T20:38:52.116Z,99537.57
2023-03-22T20:40:57.308Z,99539.85
2023-03-22T20:43:02.623Z,99540.98
2023-03-22T20:45:07.709Z,99537.78
2023-03-22T20:47:12.685Z,99536.22
2023-03-22T20:49:17.786Z,99530.95
2023-03-22T20:51:22.792Z,99535.48
2023-03-22T20:53:27.878Z,99532.17
2023-03-22T20:55:33.295Z,99530.11
2023-03-22T20:57:38.263Z,99532.27
2023-03-22T20:59:43.411Z,99525.3
2023-03-22T21:01:48.470Z,99530.92
2023-03-22T21:03:53.640Z,99528.09
2023-03-22T21:05:58.790Z,99533.13
2023-03-22T21:08:03.795Z,99532.88
2023-03-22T21:10:09.074Z,99535.58
2023-03-22T21:12:14.125Z,99538.84
2023-03-22T21:14:19.175Z,99533.45
2023-03-22T21:16:24.149Z,99529.29
2023-03-22T21:18:29.291Z,99525.87
2023-03-22T21:20:34.378Z,99530.62
2023-03-22T21:22:39.614Z,99534.52
2023-03-22T21:24:45.017Z,99534.56
2023-03-22T21:26:50.087Z,99531.22
2023-03-22T21:28:55.254Z,99543.05
2023-03-22T21:31:00.456Z,99545.95
2023-03-22T21:33:05.467Z,99567.38
2023-03-22T21:35:10.796Z,99569.78
2023-03-22T21:37:16.137Z,99569.97
2023-03-22T21:39:21.250Z,99564.36
2023-03-22T21:41:26.516Z,99564.43
2023-03-22T21:43:31.562Z,99562.45
2023-03-22T21:45:36.720Z,99564.97
2023-03-22T21:47:41.745Z,99567.67
2023-03-22T21:49:46.738Z,99565.58
2023-03-22T21:51:51.803Z,99567.73
2023-03-22T21:53:57.046Z,99572.11
2023-03-22T21:56:02.137Z,99572.04
2023-03-22T21:58:07.467Z,99571.15
2023-03-22T22:00:12.493Z,99572.34
2023-03-22T22:02:17.832Z,99567.08
2023-03-22T22:04:23.116Z,99567.19
2023-03-22T22:06:28.125Z,99565.08
2023-03-22T22:08:33.311Z,99573.64
2023-03-22T22:10:38.699Z,99569.48
2023-03-22T22:12:43.910Z,99567.47
2023-03-22T22:14:49.169Z,99566
2023-03-22T22:16:54.590Z,99573.66
2023-03-22T22:18:59.613Z,99575.92
2023-03-22T22:21:04.696Z,99575.05
2023-03-22T22:23:09.900Z,99579.59
2023-03-22T22:25:15.070Z,99580.95
2023-03-22T22:27:20.989Z,99577.67
2023-03-22T22:29:26.299Z,99578.63
2023-03-22T22:31:31.750Z,99580
2023-03-22T22:33:36.767Z,99578.29
2023-03-22T22:35:42.652Z,99581.58
2023-03-22T22:37:48.183Z,99582.17
2023-03-22T22:39:53.833Z,99580.39
2023-03-22T22:41:59.493Z,99582.6
2023-03-22T22:44:04.621Z,99583.84
2023-03-22T22:46:09.689Z,99585.84
2023-03-22T22:48:15.077Z,99584.38
2023-03-22T22:50:20.120Z,99585.5
2023-03-22T22:52:25.178Z,99583.64
2023-03-22T22:54:30.537Z,99582.28
2023-03-22T22:56:35.609Z,99585.55
2023-03-22T22:58:40.670Z,99576.83
2023-03-22T23:00:45.836Z,99575.89
2023-03-22T23:02:50.825Z,99579.48
2023-03-22T23:04:55.916Z,99575.25
2023-03-22T23:07:00.904Z,99581.5
2023-03-22T23:09:05.876Z,99584.45
2023-03-22T23:11:11.016Z,99581.03
2023-03-22T23:13:16.109Z,99584.08
2023-03-22T23:15:28.443Z,99585.33
2023-03-22T23:17:33.655Z,99571.67
2023-03-22T23:19:38.865Z,99574.25
2023-03-22T23:21:43.852Z,99571.55
2023-03-22T23:23:51.347Z,99566.23
2023-03-22T23:25:56.772Z,99569.58
2023-03-22T23:28:01.724Z,99564.23
2023-03-22T23:30:06.685Z,99563.59
2023-03-22T23:32:11.874Z,99567.07
2023-03-22T23:34:16.960Z,99572.35
2023-03-22T23:36:22.335Z,99570.98
2023-03-22T23:38:27.467Z,99569.71
2023-03-22T23:40:32.910Z,99562.63
2023-03-22T23:42:37.942Z,99565.45
2023-03-22T23:44:43.137Z,99568.44
2023-03-22T23:46:48.120Z,99573.57
2023-03-22T23:48:53.348Z,99572.05
2023-03-22T23:50:58.540Z,99568.67
2023-03-22T23:53:03.546Z,99567.33
2023-03-22T23:55:08.632Z,99565.05
2023-03-22T23:57:13.814Z,99562.48
2023-03-22T23:59:19.204Z,99560.06
